sensor_id;sensor_type;location;lat;lon;timestamp;pressure;altitude;pressure_sealevel;temperature;humidity
10482;BME280;5288;42.334;23.876;2022-09-21T00:00:40;56251.03;;;-140.56;65.09
10482;BME280;5288;42.334;23.876;2022-09-21T00:03:08;56231.25;;;-140.56;65.57
10482;BME280;5288;42.334;23.876;2022-09-21T00:05:36;56221.38;;;-140.56;65.37
10482;BME280;5288;42.334;23.876;2022-09-21T00:08:05;56247.06;;;-140.56;64.61
10482;BME280;5288;42.334;23.876;2022-09-21T00:10:33;56223.34;;;-140.56;63.63
10482;BME280;5288;42.334;23.876;2022-09-21T00:13:01;56247.06;;;-140.56;65.00
10482;BME280;5288;42.334;23.876;2022-09-21T00:15:29;56233.22;;;-140.56;65.17
10482;BME280;5288;42.334;23.876;2022-09-21T00:17:57;56266.81;;;-140.56;66.21
10482;BME280;5288;42.334;23.876;2022-09-21T00:20:26;56264.84;;;-140.56;66.64
10482;BME280;5288;42.334;23.876;2022-09-21T00:22:53;56209.50;;;-140.56;67.24
10482;BME280;5288;42.334;23.876;2022-09-21T00:25:20;56280.66;;;-140.56;67.42
10482;BME280;5288;42.334;23.876;2022-09-21T00:27:47;56251.03;;;-140.56;68.58
10482;BME280;5288;42.334;23.876;2022-09-21T00:30:16;56258.94;;;-140.56;68.68
10482;BME280;5288;42.334;23.876;2022-09-21T00:32:43;56241.13;;;-140.56;68.23
10482;BME280;5288;42.334;23.876;2022-09-21T00:35:10;56253.00;;;-140.56;67.81
10482;BME280;5288;42.334;23.876;2022-09-21T00:37:38;56276.72;;;-140.56;67.12
10482;BME280;5288;42.334;23.876;2022-09-21T00:40:06;56241.13;;;-140.56;66.97
10482;BME280;5288;42.334;23.876;2022-09-21T00:42:34;56254.97;;;-140.56;66.54
10482;BME280;5288;42.334;23.876;2022-09-21T00:45:01;56258.94;;;-140.56;66.85
10482;BME280;5288;42.334;23.876;2022-09-21T00:47:32;56262.88;;;-140.56;66.64
10482;BME280;5288;42.334;23.876;2022-09-21T00:50:03;56239.16;;;-140.56;67.98
10482;BME280;5288;42.334;23.876;2022-09-21T00:52:33;56253.00;;;-140.56;67.67
10482;BME280;5288;42.334;23.876;2022-09-21T00:55:06;56243.13;;;-140.56;67.10
10482;BME280;5288;42.334;23.876;2022-09-21T00:57:36;56284.63;;;-140.56;67.66
10482;BME280;5288;42.334;23.876;2022-09-21T01:00:06;56247.06;;;-140.56;68.13
10482;BME280;5288;42.334;23.876;2022-09-21T01:02:34;56290.53;;;-140.56;68.40
10482;BME280;5288;42.334;23.876;2022-09-21T01:05:04;56272.75;;;-140.56;69.22
10482;BME280;5288;42.334;23.876;2022-09-21T01:07:36;56262.88;;;-140.56;69.25
10482;BME280;5288;42.334;23.876;2022-09-21T01:10:09;56245.09;;;-140.56;69.80
10482;BME280;5288;42.334;23.876;2022-09-21T01:12:58;56288.56;;;-140.56;69.56
10482;BME280;5288;42.334;23.876;2022-09-21T01:15:36;56260.91;;;-140.56;68.93
10482;BME280;5288;42.334;23.876;2022-09-21T01:18:11;56262.88;;;-140.56;68.64
10482;BME280;5288;42.334;23.876;2022-09-21T01:24:01;56262.88;;;-140.56;68.98
10482;BME280;5288;42.334;23.876;2022-09-21T01:26:47;56264.84;;;-140.56;66.50
10482;BME280;5288;42.334;23.876;2022-09-21T01:29:19;56253.00;;;-140.56;66.65
10482;BME280;5288;42.334;23.876;2022-09-21T01:31:53;56260.91;;;-140.56;67.28
10482;BME280;5288;42.334;23.876;2022-09-21T01:34:27;56278.69;;;-140.56;67.90
10482;BME280;5288;42.334;23.876;2022-09-21T01:36:57;56276.72;;;-140.56;68.30
10482;BME280;5288;42.334;23.876;2022-09-21T01:39:26;56264.84;;;-140.56;68.78
10482;BME280;5288;42.334;23.876;2022-09-21T01:41:54;56274.72;;;-140.56;69.30
10482;BME280;5288;42.334;23.876;2022-09-21T01:44:26;56249.03;;;-140.56;69.29
10482;BME280;5288;42.334;23.876;2022-09-21T01:46:55;56264.84;;;-140.56;68.35
10482;BME280;5288;42.334;23.876;2022-09-21T01:49:26;56282.63;;;-140.56;67.86
10482;BME280;5288;42.334;23.876;2022-09-21T01:51:57;56258.94;;;-140.56;68.76
10482;BME280;5288;42.334;23.876;2022-09-21T01:54:29;56253.00;;;-140.56;68.07
10482;BME280;5288;42.334;23.876;2022-09-21T01:57:04;56243.13;;;-140.56;67.48
10482;BME280;5288;42.334;23.876;2022-09-21T01:59:38;56241.13;;;-140.56;67.99
10482;BME280;5288;42.334;23.876;2022-09-21T02:02:11;56268.81;;;-140.56;67.45
10482;BME280;5288;42.334;23.876;2022-09-21T02:04:39;56264.84;;;-140.56;67.03
10482;BME280;5288;42.334;23.876;2022-09-21T02:07:07;56286.59;;;-140.56;67.54
10482;BME280;5288;42.334;23.876;2022-09-21T02:09:35;56239.16;;;-140.56;68.41
10482;BME280;5288;42.334;23.876;2022-09-21T02:12:05;56286.59;;;-140.56;69.41
10482;BME280;5288;42.334;23.876;2022-09-21T02:14:34;56235.22;;;-140.56;69.96
10482;BME280;5288;42.334;23.876;2022-09-21T02:17:09;56272.75;;;-140.56;69.91
10482;BME280;5288;42.334;23.876;2022-09-21T02:19:45;56280.66;;;-140.56;69.29
10482;BME280;5288;42.334;23.876;2022-09-21T02:22:17;56306.34;;;-140.56;69.25
10482;BME280;5288;42.334;23.876;2022-09-21T02:24:51;56278.69;;;-140.56;68.93
10482;BME280;5288;42.334;23.876;2022-09-21T02:27:28;56260.91;;;-140.56;68.20
10482;BME280;5288;42.334;23.876;2022-09-21T02:30:03;56256.94;;;-140.56;68.78
10482;BME280;5288;42.334;23.876;2022-09-21T02:32:38;56235.22;;;-140.56;68.48
10482;BME280;5288;42.334;23.876;2022-09-21T02:35:21;56245.09;;;-140.56;67.93
10482;BME280;5288;42.334;23.876;2022-09-21T02:37:54;56237.19;;;-140.56;66.95
10482;BME280;5288;42.334;23.876;2022-09-21T02:40:29;56264.84;;;-140.56;66.60
10482;BME280;5288;42.334;23.876;2022-09-21T02:43:00;56278.69;;;-140.56;66.35
10482;BME280;5288;42.334;23.876;2022-09-21T02:45:34;56225.31;;;-140.56;66.22
10482;BME280;5288;42.334;23.876;2022-09-21T02:48:06;56266.81;;;-140.56;65.99
10482;BME280;5288;42.334;23.876;2022-09-21T02:50:37;56256.94;;;-140.56;66.57
10482;BME280;5288;42.334;23.876;2022-09-21T02:53:08;56260.91;;;-140.56;66.63
10482;BME280;5288;42.334;23.876;2022-09-21T02:55:37;56268.81;;;-140.56;66.31
10482;BME280;5288;42.334;23.876;2022-09-21T02:58:07;56247.06;;;-140.56;67.03
10482;BME280;5288;42.334;23.876;2022-09-21T03:00:38;56241.13;;;-140.56;66.83
10482;BME280;5288;42.334;23.876;2022-09-21T03:03:13;56243.13;;;-140.56;66.83
10482;BME280;5288;42.334;23.876;2022-09-21T03:05:42;56282.63;;;-140.56;66.45
10482;BME280;5288;42.334;23.876;2022-09-21T03:08:09;56282.63;;;-140.56;65.95
10482;BME280;5288;42.334;23.876;2022-09-21T03:10:36;56270.78;;;-140.56;65.27
10482;BME280;5288;42.334;23.876;2022-09-21T03:13:04;56205.56;;;-140.56;66.67
10482;BME280;5288;42.334;23.876;2022-09-21T03:15:33;56219.41;;;-140.56;66.95
10482;BME280;5288;42.334;23.876;2022-09-21T03:18:02;56274.72;;;-140.56;66.06
10482;BME280;5288;42.334;23.876;2022-09-21T03:20:30;56272.75;;;-140.56;67.25
10482;BME280;5288;42.334;23.876;2022-09-21T03:22:58;56262.88;;;-140.56;66.34
10482;BME280;5288;42.334;23.876;2022-09-21T03:25:25;56245.09;;;-140.56;66.70
10482;BME280;5288;42.334;23.876;2022-09-21T03:27:53;56262.88;;;-140.56;66.43
10482;BME280;5288;42.334;23.876;2022-09-21T03:30:20;56223.34;;;-140.56;65.06
10482;BME280;5288;42.334;23.876;2022-09-21T03:32:48;56278.69;;;-140.56;66.24
10482;BME280;5288;42.334;23.876;2022-09-21T03:35:16;56251.03;;;-140.56;66.55
10482;BME280;5288;42.334;23.876;2022-09-21T03:37:44;56276.72;;;-140.56;66.61
10482;BME280;5288;42.334;23.876;2022-09-21T03:40:11;56258.94;;;-140.56;66.22
10482;BME280;5288;42.334;23.876;2022-09-21T03:42:39;56247.06;;;-140.56;66.97
10482;BME280;5288;42.334;23.876;2022-09-21T03:45:07;56256.94;;;-140.56;67.42
10482;BME280;5288;42.334;23.876;2022-09-21T03:47:34;56258.94;;;-140.56;67.78
10482;BME280;5288;42.334;23.876;2022-09-21T03:50:02;56251.03;;;-140.56;67.66
10482;BME280;5288;42.334;23.876;2022-09-21T03:52:31;56268.81;;;-140.56;68.55
10482;BME280;5288;42.334;23.876;2022-09-21T03:54:58;56262.88;;;-140.56;69.83
10482;BME280;5288;42.334;23.876;2022-09-21T03:57:25;56306.34;;;-140.56;70.91
10482;BME280;5288;42.334;23.876;2022-09-21T03:59:52;56268.81;;;-140.56;72.11
10482;BME280;5288;42.334;23.876;2022-09-21T04:02:19;56308.34;;;-140.56;73.45
10482;BME280;5288;42.334;23.876;2022-09-21T04:04:46;56330.06;;;-140.56;74.33
10482;BME280;5288;42.334;23.876;2022-09-21T04:07:13;56337.97;;;-140.56;74.15
10482;BME280;5288;42.334;23.876;2022-09-21T04:09:42;56314.25;;;-140.56;73.53
10482;BME280;5288;42.334;23.876;2022-09-21T04:12:09;56300.44;;;-140.56;72.85
10482;BME280;5288;42.334;23.876;2022-09-21T04:14:36;56302.41;;;-140.56;73.68
10482;BME280;5288;42.334;23.876;2022-09-21T04:17:03;56306.34;;;-140.56;73.58
10482;BME280;5288;42.334;23.876;2022-09-21T04:19:30;56272.75;;;-140.56;73.25
10482;BME280;5288;42.334;23.876;2022-09-21T04:21:57;56286.59;;;-140.56;72.58
10482;BME280;5288;42.334;23.876;2022-09-21T04:24:24;56314.25;;;-140.56;72.98
10482;BME280;5288;42.334;23.876;2022-09-21T04:26:53;56274.72;;;-140.56;72.81
10482;BME280;5288;42.334;23.876;2022-09-21T04:29:20;56312.28;;;-140.56;73.25
10482;BME280;5288;42.334;23.876;2022-09-21T04:31:47;56306.34;;;-140.56;73.28
10482;BME280;5288;42.334;23.876;2022-09-21T04:34:14;56314.25;;;-140.56;74.46
10482;BME280;5288;42.334;23.876;2022-09-21T04:36:41;56298.44;;;-140.56;74.75
10482;BME280;5288;42.334;23.876;2022-09-21T04:39:08;56318.22;;;-140.56;74.74
10482;BME280;5288;42.334;23.876;2022-09-21T04:41:35;56290.53;;;-140.56;74.71
10482;BME280;5288;42.334;23.876;2022-09-21T04:44:03;56326.13;;;-140.56;75.22
10482;BME280;5288;42.334;23.876;2022-09-21T04:46:30;56312.28;;;-140.56;74.84
10482;BME280;5288;42.334;23.876;2022-09-21T04:48:57;56306.34;;;-140.56;74.87
10482;BME280;5288;42.334;23.876;2022-09-21T04:51:24;56316.25;;;-140.56;74.60
10482;BME280;5288;42.334;23.876;2022-09-21T04:53:51;56286.59;;;-140.56;74.95
10482;BME280;5288;42.334;23.876;2022-09-21T04:56:18;56278.69;;;-140.56;74.62
10482;BME280;5288;42.334;23.876;2022-09-21T04:58:45;56288.56;;;-140.56;74.37
10482;BME280;5288;42.334;23.876;2022-09-21T05:01:13;56284.63;;;-140.56;73.42
10482;BME280;5288;42.334;23.876;2022-09-21T05:03:40;56286.59;;;-140.56;72.66
10482;BME280;5288;42.334;23.876;2022-09-21T05:06:07;56241.13;;;-140.56;74.15
10482;BME280;5288;42.334;23.876;2022-09-21T05:08:38;56278.69;;;-140.56;74.15
10482;BME280;5288;42.334;23.876;2022-09-21T05:11:23;56258.94;;;-140.56;71.84
10482;BME280;5288;42.334;23.876;2022-09-21T05:13:50;56290.53;;;-140.56;68.28
10482;BME280;5288;42.334;23.876;2022-09-21T05:16:19;56274.72;;;-140.56;68.81
10482;BME280;5288;42.334;23.876;2022-09-21T05:18:46;56286.59;;;-140.56;68.36
10482;BME280;5288;42.334;23.876;2022-09-21T05:21:14;56312.28;;;-140.56;68.96
10482;BME280;5288;42.334;23.876;2022-09-21T05:23:41;56251.03;;;-140.56;68.74
10482;BME280;5288;42.334;23.876;2022-09-21T05:26:08;56268.81;;;-140.56;69.11
10482;BME280;5288;42.334;23.876;2022-09-21T05:28:35;56294.50;;;-140.56;69.66
10482;BME280;5288;42.334;23.876;2022-09-21T05:31:10;56302.41;;;-140.56;70.88
10482;BME280;5288;42.334;23.876;2022-09-21T05:33:47;56264.84;;;-140.56;69.98
10482;BME280;5288;42.334;23.876;2022-09-21T05:36:31;56284.63;;;-140.56;69.53
10482;BME280;5288;42.334;23.876;2022-09-21T05:39:01;56298.44;;;-140.56;70.24
10482;BME280;5288;42.334;23.876;2022-09-21T05:41:29;56264.84;;;-140.56;70.34
10482;BME280;5288;42.334;23.876;2022-09-21T05:43:57;56258.94;;;-140.56;69.48
10482;BME280;5288;42.334;23.876;2022-09-21T05:46:34;56266.81;;;-140.56;68.12
10482;BME280;5288;42.334;23.876;2022-09-21T05:49:12;56245.09;;;-140.56;66.61
10482;BME280;5288;42.334;23.876;2022-09-21T05:51:48;56262.88;;;-140.56;65.94
10482;BME280;5288;42.334;23.876;2022-09-21T05:54:23;56237.19;;;-140.56;65.85
10482;BME280;5288;42.334;23.876;2022-09-21T05:56:59;56278.69;;;-140.56;64.84
10482;BME280;5288;42.334;23.876;2022-09-21T05:59:40;56231.25;;;-140.56;64.01
10482;BME280;5288;42.334;23.876;2022-09-21T06:02:19;56258.94;;;-140.56;63.90
10482;BME280;5288;42.334;23.876;2022-09-21T06:04:52;56233.22;;;-140.56;64.61
10482;BME280;5288;42.334;23.876;2022-09-21T06:07:22;56219.41;;;-140.56;63.98
10482;BME280;5288;42.334;23.876;2022-09-21T06:09:49;56256.94;;;-140.56;63.58
10482;BME280;5288;42.334;23.876;2022-09-21T06:12:16;56247.06;;;-140.56;64.01
10482;BME280;5288;42.334;23.876;2022-09-21T06:14:43;56270.78;;;-140.56;63.34
10482;BME280;5288;42.334;23.876;2022-09-21T06:17:10;56241.13;;;-140.56;63.41
10482;BME280;5288;42.334;23.876;2022-09-21T06:19:37;56237.19;;;-140.56;63.77
10482;BME280;5288;42.334;23.876;2022-09-21T06:22:05;56223.34;;;-140.56;64.00
10482;BME280;5288;42.334;23.876;2022-09-21T06:24:32;56262.88;;;-140.56;64.06
10482;BME280;5288;42.334;23.876;2022-09-21T06:26:59;56249.03;;;-140.56;64.99
10482;BME280;5288;42.334;23.876;2022-09-21T06:29:26;56276.72;;;-140.56;65.04
10482;BME280;5288;42.334;23.876;2022-09-21T06:31:53;56239.16;;;-140.56;64.80
10482;BME280;5288;42.334;23.876;2022-09-21T06:34:20;56276.72;;;-140.56;64.11
10482;BME280;5288;42.334;23.876;2022-09-21T06:36:47;56268.81;;;-140.56;63.59
10482;BME280;5288;42.334;23.876;2022-09-21T06:39:16;56260.91;;;-140.56;63.71
10482;BME280;5288;42.334;23.876;2022-09-21T06:41:43;56225.31;;;-140.56;63.95
10482;BME280;5288;42.334;23.876;2022-09-21T06:44:09;56260.91;;;-140.56;63.99
10482;BME280;5288;42.334;23.876;2022-09-21T06:46:37;56239.16;;;-140.56;64.63
10482;BME280;5288;42.334;23.876;2022-09-21T06:49:04;56260.91;;;-140.56;64.95
10482;BME280;5288;42.334;23.876;2022-09-21T06:51:31;56251.03;;;-140.56;65.19
10482;BME280;5288;42.334;23.876;2022-09-21T06:53:58;56264.84;;;-140.56;65.09
10482;BME280;5288;42.334;23.876;2022-09-21T06:56:27;56256.94;;;-140.56;65.22
10482;BME280;5288;42.334;23.876;2022-09-21T06:58:54;56270.78;;;-140.56;64.48
10482;BME280;5288;42.334;23.876;2022-09-21T07:01:21;56260.91;;;-140.56;65.66
10482;BME280;5288;42.334;23.876;2022-09-21T07:03:49;56249.03;;;-140.56;65.47
10482;BME280;5288;42.334;23.876;2022-09-21T07:06:17;56251.03;;;-140.56;65.44
10482;BME280;5288;42.334;23.876;2022-09-21T07:08:45;56221.38;;;-140.56;65.23
10482;BME280;5288;42.334;23.876;2022-09-21T07:11:12;56249.03;;;-140.56;65.62
10482;BME280;5288;42.334;23.876;2022-09-21T07:13:41;56223.34;;;-140.56;66.33
10482;BME280;5288;42.334;23.876;2022-09-21T07:16:09;56211.50;;;-140.56;66.20
10482;BME280;5288;42.334;23.876;2022-09-21T07:18:39;56177.91;;;-140.56;66.00
10482;BME280;5288;42.334;23.876;2022-09-21T07:21:08;56270.78;;;-140.56;65.39
10482;BME280;5288;42.334;23.876;2022-09-21T07:23:36;56227.31;;;-140.56;64.97
10482;BME280;5288;42.334;23.876;2022-09-21T07:26:05;56229.28;;;-140.56;65.08
10482;BME280;5288;42.334;23.876;2022-09-21T07:28:32;56256.94;;;-140.56;65.44
10482;BME280;5288;42.334;23.876;2022-09-21T07:31:06;56191.72;;;-140.56;64.54
10482;BME280;5288;42.334;23.876;2022-09-21T07:33:35;56193.72;;;-140.56;61.89
10482;BME280;5288;42.334;23.876;2022-09-21T07:36:03;56201.63;;;-140.56;60.41
10482;BME280;5288;42.334;23.876;2022-09-21T07:38:35;56201.63;;;-140.56;60.37
10482;BME280;5288;42.334;23.876;2022-09-21T07:41:02;56191.72;;;-140.56;58.26
10482;BME280;5288;42.334;23.876;2022-09-21T07:43:29;56177.91;;;-140.56;56.51
10482;BME280;5288;42.334;23.876;2022-09-21T07:45:56;56168.00;;;-140.56;56.73
10482;BME280;5288;42.334;23.876;2022-09-21T07:48:24;56189.75;;;-140.56;56.82
10482;BME280;5288;42.334;23.876;2022-09-21T07:50:52;56199.63;;;-140.56;56.62
10482;BME280;5288;42.334;23.876;2022-09-21T07:53:19;56205.56;;;-140.56;55.77
10482;BME280;5288;42.334;23.876;2022-09-21T07:55:46;56166.03;;;-140.56;56.03
10482;BME280;5288;42.334;23.876;2022-09-21T07:58:13;56179.88;;;-140.56;54.81
10482;BME280;5288;42.334;23.876;2022-09-21T08:00:57;56185.81;;;-140.56;54.55
10482;BME280;5288;42.334;23.876;2022-09-21T08:03:26;56168.00;;;-140.56;53.74
10482;BME280;5288;42.334;23.876;2022-09-21T08:05:53;56138.38;;;-140.56;54.93
10482;BME280;5288;42.334;23.876;2022-09-21T08:08:20;56160.13;;;-140.56;53.73
10482;BME280;5288;42.334;23.876;2022-09-21T08:10:47;56146.28;;;-140.56;53.30
10482;BME280;5288;42.334;23.876;2022-09-21T08:13:16;56171.97;;;-140.56;53.56
10482;BME280;5288;42.334;23.876;2022-09-21T08:15:43;56164.06;;;-140.56;52.01
10482;BME280;5288;42.334;23.876;2022-09-21T08:18:11;56134.41;;;-140.56;52.80
10482;BME280;5288;42.334;23.876;2022-09-21T08:20:40;56142.31;;;-140.56;50.21
10482;BME280;5288;42.334;23.876;2022-09-21T08:23:07;56175.91;;;-140.56;49.65
10482;BME280;5288;42.334;23.876;2022-09-21T08:25:34;56130.47;;;-140.56;48.49
10482;BME280;5288;42.334;23.876;2022-09-21T08:28:01;56106.75;;;-140.56;49.30
10482;BME280;5288;42.334;23.876;2022-09-21T08:30:28;56124.53;;;-140.56;48.03
10482;BME280;5288;42.334;23.876;2022-09-21T08:32:56;56100.81;;;-140.56;45.93
10482;BME280;5288;42.334;23.876;2022-09-21T08:35:23;56150.22;;;-140.56;47.38
10482;BME280;5288;42.334;23.876;2022-09-21T08:37:53;56088.97;;;-140.56;46.44
10482;BME280;5288;42.334;23.876;2022-09-21T08:40:21;56136.41;;;-140.56;45.54
10482;BME280;5288;42.334;23.876;2022-09-21T08:42:54;56112.69;;;-140.56;45.91
10482;BME280;5288;42.334;23.876;2022-09-21T08:45:25;56108.72;;;-140.56;45.66
10482;BME280;5288;42.334;23.876;2022-09-21T08:47:59;56098.84;;;-140.56;44.31
10482;BME280;5288;42.334;23.876;2022-09-21T08:50:33;56122.56;;;-140.56;44.58
10482;BME280;5288;42.334;23.876;2022-09-21T08:53:07;56102.81;;;-140.56;44.23
10482;BME280;5288;42.334;23.876;2022-09-21T08:55:36;56118.59;;;-140.56;44.50
10482;BME280;5288;42.334;23.876;2022-09-21T08:58:08;56132.44;;;-140.56;45.94
10482;BME280;5288;42.334;23.876;2022-09-21T09:00:42;56170.00;;;-140.56;44.62
10482;BME280;5288;42.334;23.876;2022-09-21T09:03:28;56098.84;;;-140.56;44.75
10482;BME280;5288;42.334;23.876;2022-09-21T09:06:05;56120.59;;;-140.56;43.51
10482;BME280;5288;42.334;23.876;2022-09-21T09:08:50;56126.50;;;-140.56;46.23
10482;BME280;5288;42.334;23.876;2022-09-21T09:11:45;56122.56;;;-140.56;43.74
10482;BME280;5288;42.334;23.876;2022-09-21T09:14:40;56102.81;;;-140.56;44.58
10482;BME280;5288;42.334;23.876;2022-09-21T09:17:33;56132.44;;;-140.56;43.27
10482;BME280;5288;42.334;23.876;2022-09-21T09:20:09;56128.50;;;-140.56;44.26
10482;BME280;5288;42.334;23.876;2022-09-21T09:22:41;56120.59;;;-140.56;43.86
10482;BME280;5288;42.334;23.876;2022-09-21T09:25:16;56102.81;;;-140.56;43.04
10482;BME280;5288;42.334;23.876;2022-09-21T09:27:46;56081.06;;;-140.56;43.17
10482;BME280;5288;42.334;23.876;2022-09-21T09:30:17;56065.25;;;-140.56;40.74
10482;BME280;5288;42.334;23.876;2022-09-21T09:32:51;56096.88;;;-140.56;41.54
10482;BME280;5288;42.334;23.876;2022-09-21T09:35:25;56088.97;;;-140.56;42.61
10482;BME280;5288;42.334;23.876;2022-09-21T09:37:55;56094.91;;;-140.56;41.89
10482;BME280;5288;42.334;23.876;2022-09-21T09:40:38;56106.75;;;-140.56;42.02
10482;BME280;5288;42.334;23.876;2022-09-21T09:43:14;56081.06;;;-140.56;42.73
10482;BME280;5288;42.334;23.876;2022-09-21T09:45:52;56104.78;;;-140.56;41.32
10482;BME280;5288;42.334;23.876;2022-09-21T09:48:44;56088.97;;;-140.56;41.38
10482;BME280;5288;42.334;23.876;2022-09-21T09:51:15;56071.19;;;-140.56;40.91
10482;BME280;5288;42.334;23.876;2022-09-21T09:53:43;56138.38;;;-140.56;40.94
10482;BME280;5288;42.334;23.876;2022-09-21T09:56:12;56092.91;;;-140.56;41.66
10482;BME280;5288;42.334;23.876;2022-09-21T09:58:44;56067.22;;;-140.56;40.34
10482;BME280;5288;42.334;23.876;2022-09-21T10:01:35;56079.09;;;-140.56;40.49
10482;BME280;5288;42.334;23.876;2022-09-21T10:04:07;56092.91;;;-140.56;40.65
10482;BME280;5288;42.334;23.876;2022-09-21T10:06:34;56092.91;;;-140.56;39.90
10482;BME280;5288;42.334;23.876;2022-09-21T10:09:17;56077.09;;;-140.56;39.91
10482;BME280;5288;42.334;23.876;2022-09-21T10:11:46;56100.81;;;-140.56;41.91
10482;BME280;5288;42.334;23.876;2022-09-21T10:14:17;56087.00;;;-140.56;39.83
10482;BME280;5288;42.334;23.876;2022-09-21T10:16:45;56112.69;;;-140.56;39.75
10482;BME280;5288;42.334;23.876;2022-09-21T10:19:18;56083.03;;;-140.56;41.09
10482;BME280;5288;42.334;23.876;2022-09-21T10:21:47;56069.22;;;-140.56;39.22
10482;BME280;5288;42.334;23.876;2022-09-21T10:24:20;56092.91;;;-140.56;41.01
10482;BME280;5288;42.334;23.876;2022-09-21T10:26:51;56087.00;;;-140.56;41.69
10482;BME280;5288;42.334;23.876;2022-09-21T10:29:30;56067.22;;;-140.56;39.86
10482;BME280;5288;42.334;23.876;2022-09-21T10:31:59;56033.63;;;-140.56;39.68
10482;BME280;5288;42.334;23.876;2022-09-21T10:34:29;56069.22;;;-140.56;38.33
10482;BME280;5288;42.334;23.876;2022-09-21T10:36:57;56065.25;;;-140.56;38.57
10482;BME280;5288;42.334;23.876;2022-09-21T10:39:27;56063.28;;;-140.56;38.72
10482;BME280;5288;42.334;23.876;2022-09-21T10:42:02;56092.91;;;-140.56;39.08
10482;BME280;5288;42.334;23.876;2022-09-21T10:44:40;56071.19;;;-140.56;39.62
10482;BME280;5288;42.334;23.876;2022-09-21T10:47:17;56079.09;;;-140.56;39.81
10482;BME280;5288;42.334;23.876;2022-09-21T10:49:48;56077.09;;;-140.56;39.78
10482;BME280;5288;42.334;23.876;2022-09-21T10:52:16;56108.72;;;-140.56;38.72
10482;BME280;5288;42.334;23.876;2022-09-21T10:54:47;56106.75;;;-140.56;39.44
10482;BME280;5288;42.334;23.876;2022-09-21T10:57:20;56092.91;;;-140.56;40.34
10482;BME280;5288;42.334;23.876;2022-09-21T10:59:48;56063.28;;;-140.56;40.16
10482;BME280;5288;42.334;23.876;2022-09-21T11:02:33;56063.28;;;-140.56;40.08
10482;BME280;5288;42.334;23.876;2022-09-21T11:05:07;56100.81;;;-140.56;38.42
10482;BME280;5288;42.334;23.876;2022-09-21T11:07:40;56059.31;;;-140.56;37.87
10482;BME280;5288;42.334;23.876;2022-09-21T11:10:17;56041.53;;;-140.56;39.60
10482;BME280;5288;42.334;23.876;2022-09-21T11:13:04;56049.44;;;-140.56;38.82
10482;BME280;5288;42.334;23.876;2022-09-21T11:15:46;56071.19;;;-140.56;38.19
10482;BME280;5288;42.334;23.876;2022-09-21T11:18:20;56049.44;;;-140.56;38.25
10482;BME280;5288;42.334;23.876;2022-09-21T11:20:51;56069.22;;;-140.56;39.11
10482;BME280;5288;42.334;23.876;2022-09-21T11:23:30;56061.31;;;-140.56;36.09
10482;BME280;5288;42.334;23.876;2022-09-21T11:26:03;56029.69;;;-140.56;37.38
10482;BME280;5288;42.334;23.876;2022-09-21T11:28:40;56061.31;;;-140.56;36.97
10482;BME280;5288;42.334;23.876;2022-09-21T11:31:39;56029.69;;;-140.56;35.52
10482;BME280;5288;42.334;23.876;2022-09-21T11:34:20;56053.41;;;-140.56;37.54
10482;BME280;5288;42.334;23.876;2022-09-21T11:36:55;56053.41;;;-140.56;37.10
10482;BME280;5288;42.334;23.876;2022-09-21T11:39:33;56023.75;;;-140.56;36.39
10482;BME280;5288;42.334;23.876;2022-09-21T11:42:17;56041.53;;;-140.56;37.63
10482;BME280;5288;42.334;23.876;2022-09-21T11:44:52;56069.22;;;-140.56;36.64
10482;BME280;5288;42.334;23.876;2022-09-21T11:47:38;56088.97;;;-140.56;36.22
10482;BME280;5288;42.334;23.876;2022-09-21T11:50:23;56088.97;;;-140.56;36.58
10482;BME280;5288;42.334;23.876;2022-09-21T11:53:03;56045.50;;;-140.56;38.07
10482;BME280;5288;42.334;23.876;2022-09-21T11:55:42;56069.22;;;-140.56;36.08
10482;BME280;5288;42.334;23.876;2022-09-21T11:58:21;56049.44;;;-140.56;38.33
10482;BME280;5288;42.334;23.876;2022-09-21T12:00:58;56073.16;;;-140.56;36.45
10482;BME280;5288;42.334;23.876;2022-09-21T12:03:43;56049.44;;;-140.56;36.80
10482;BME280;5288;42.334;23.876;2022-09-21T12:06:27;56069.22;;;-140.56;38.30
10482;BME280;5288;42.334;23.876;2022-09-21T12:09:24;56043.50;;;-140.56;37.81
10482;BME280;5288;42.334;23.876;2022-09-21T12:12:02;56061.31;;;-140.56;37.38
10482;BME280;5288;42.334;23.876;2022-09-21T12:14:40;56059.31;;;-140.56;37.73
10482;BME280;5288;42.334;23.876;2022-09-21T12:17:15;56059.31;;;-140.56;37.71
10482;BME280;5288;42.334;23.876;2022-09-21T12:19:49;56069.22;;;-140.56;37.56
10482;BME280;5288;42.334;23.876;2022-09-21T12:22:23;56061.31;;;-140.56;37.58
10482;BME280;5288;42.334;23.876;2022-09-21T12:24:55;56053.41;;;-140.56;37.23
10482;BME280;5288;42.334;23.876;2022-09-21T12:27:27;56057.34;;;-140.56;38.38
10482;BME280;5288;42.334;23.876;2022-09-21T12:29:59;56067.22;;;-140.56;38.99
10482;BME280;5288;42.334;23.876;2022-09-21T12:32:38;56092.91;;;-140.56;37.24
10482;BME280;5288;42.334;23.876;2022-09-21T12:35:14;56088.97;;;-140.56;38.54
10482;BME280;5288;42.334;23.876;2022-09-21T12:37:46;56055.38;;;-140.56;38.03
10482;BME280;5288;42.334;23.876;2022-09-21T12:40:18;56063.28;;;-140.56;38.46
10482;BME280;5288;42.334;23.876;2022-09-21T12:42:56;56023.75;;;-140.56;38.57
10482;BME280;5288;42.334;23.876;2022-09-21T12:45:31;56090.94;;;-140.56;38.61
10482;BME280;5288;42.334;23.876;2022-09-21T12:48:05;56069.22;;;-140.56;38.34
10482;BME280;5288;42.334;23.876;2022-09-21T12:50:39;56088.97;;;-140.56;38.37
10482;BME280;5288;42.334;23.876;2022-09-21T12:53:13;56081.06;;;-140.56;39.36
10482;BME280;5288;42.334;23.876;2022-09-21T12:55:49;56071.19;;;-140.56;38.82
10482;BME280;5288;42.334;23.876;2022-09-21T12:58:33;56112.69;;;-140.56;38.33
10482;BME280;5288;42.334;23.876;2022-09-21T13:01:17;56110.72;;;-140.56;38.68
10482;BME280;5288;42.334;23.876;2022-09-21T13:03:57;56087.00;;;-140.56;38.38
10482;BME280;5288;42.334;23.876;2022-09-21T13:06:43;56094.91;;;-140.56;38.40